.
WxDataArchive / Data Records for 2015-10-29
2015-10-28 October 2015 2015-10-30

Data Records for Thursday, 29 October 2015

Time	Temp	Chill	HIndex	Humid	Dewpt	 Wind 	HiWind	WindDir	Rain 	Barom
-----	----	-----	------	-----	-----	------	------	-------	-----	-----
00:00	45.1	45.1	45.1	84	40.6	2	5	270	0.00	29.540 
00:05	44.9	44.9	44.9	83	40.1	3	6	270	0.00	29.540 
00:10	44.8	44.8	44.8	82	39.6	2	6	270	0.00	29.540 
00:15	44.6	44.6	44.6	81	39.1	2	6	270	0.00	29.547 
00:20	44.6	44.6	44.6	81	39.1	2	5	292	0.00	29.547 
00:25	44.5	44.5	44.5	81	39.0	1	4	292	0.00	29.547 
00:30	44.2	44.2	44.2	79	38.1	2	6	292	0.00	29.560 
00:35	43.9	43.9	43.9	76	36.8	3	10	248	0.00	29.560 
00:40	43.6	43.6	43.6	73	35.5	3	9	248	0.00	29.560 
00:45	43.3	41.1	43.3	71	34.5	4	9	270	0.00	29.563 
00:50	43.2	43.2	43.2	71	34.4	3	7	248	0.00	29.563 
00:55	43.1	43.1	43.1	71	34.3	3	7	292	0.00	29.563 
01:00	43.1	43.1	43.1	71	34.3	2	7	292	0.00	29.563 
01:05	42.9	42.9	42.9	70	33.8	1	5	270	0.00	29.563 
01:10	42.8	42.8	42.8	70	33.7	2	6	270	0.00	29.563 
01:15	42.8	42.8	42.8	71	34.1	1	4	270	0.00	29.563 
01:20	42.6	42.6	42.6	70	33.5	1	6	270	0.00	29.563 
01:25	42.6	42.6	42.6	68	32.8	2	5	248	0.00	29.563 
01:30	42.6	42.6	42.6	68	32.8	1	4	292	0.00	29.563 
01:35	42.5	42.5	42.5	68	32.7	1	5	270	0.00	29.563 
01:40	42.3	42.3	42.3	68	32.5	1	5	270	0.00	29.563 
01:45	42.3	42.3	42.3	68	32.5	1	5	248	0.00	29.553 
01:50	42.3	42.3	42.3	69	32.9	1	4	248	0.00	29.553 
01:55	42.2	42.2	42.2	69	32.8	0	2	248	0.00	29.553 
02:00	42.1	42.1	42.1	69	32.7	1	7	292	0.00	29.554 
02:05	41.9	41.9	41.9	69	32.5	1	4	292	0.00	29.554 
02:10	41.8	41.8	41.8	69	32.4	0	4	292	0.00	29.554 
02:15	41.6	41.6	41.6	68	31.8	1	5	270	0.00	29.550 
02:20	41.5	41.5	41.5	68	31.7	0	3	248	0.00	29.550 
02:25	41.3	41.3	41.3	68	31.5	1	5	270	0.00	29.550 
02:30	41.2	41.2	41.2	68	31.5	1	6	270	0.00	29.550 
02:35	41.1	41.1	41.1	68	31.4	1	3	248	0.00	29.550 
02:40	41.1	41.1	41.1	68	31.4	1	4	248	0.00	29.550 
02:45	40.9	40.9	40.9	68	31.2	1	5	248	0.00	29.548 
02:50	40.9	40.9	40.9	68	31.2	0	3	248	0.00	29.548 
02:55	40.8	40.8	40.8	67	30.7	1	5	248	0.00	29.548 
03:00	40.8	40.8	40.8	67	30.7	1	6	248	0.00	29.546 
03:05	40.6	40.6	40.6	66	30.1	1	5	248	0.00	29.546 
03:10	40.6	40.6	40.6	66	30.1	1	5	248	0.00	29.546 
03:15	40.6	40.6	40.6	66	30.1	1	4	248	0.00	29.550 
03:20	40.5	40.5	40.5	66	30.0	1	11	248	0.00	29.550 
03:25	40.5	40.5	40.5	66	30.0	1	3	248	0.00	29.550 
03:30	40.3	40.3	40.3	67	30.2	1	6	248	0.00	29.562 
03:35	40.2	40.2	40.2	66	29.8	2	6	248	0.00	29.562 
03:40	40.2	40.2	40.2	66	29.8	1	4	248	0.00	29.562 
03:45	40.1	40.1	40.1	67	30.0	0	4	248	0.00	29.556 
03:50	39.9	39.9	39.9	67	29.8	1	3	248	0.00	29.556 
03:55	39.8	39.8	39.8	68	30.1	1	6	248	0.00	29.556 
04:00	39.9	39.9	39.9	68	30.2	1	5	248	0.00	29.564 
04:05	40.1	40.1	40.1	68	30.4	1	4	248	0.00	29.564 
04:10	40.1	40.1	40.1	68	30.4	1	3	248	0.00	29.564 
04:15	40.1	40.1	40.1	69	30.8	0	4	248	0.00	29.566 
04:20	40.2	40.2	40.2	69	30.9	1	4	248	0.00	29.566 
04:25	40.2	40.2	40.2	69	30.9	1	5	248	0.00	29.566 
04:30	40.2	40.2	40.2	69	30.9	1	4	248	0.00	29.574 
04:35	40.2	40.2	40.2	69	30.9	1	6	248	0.00	29.574 
04:40	40.2	40.2	40.2	69	30.9	1	5	248	0.00	29.574 
04:45	40.2	40.2	40.2	70	31.2	0	3	248	0.00	29.578 
04:50	40.2	40.2	40.2	70	31.2	0	3	248	0.00	29.578 
04:55	40.1	40.1	40.1	71	31.5	1	4	248	0.00	29.578 
05:00	40.1	40.1	40.1	71	31.5	2	6	248	0.00	29.581 
05:05	40.1	40.1	40.1	72	31.8	1	6	248	0.00	29.581 
05:10	39.9	39.9	39.9	72	31.6	2	11	248	0.00	29.581 
05:15	39.9	39.9	39.9	71	31.3	2	4	270	0.00	29.584 
05:20	39.8	39.8	39.8	70	30.8	0	3	270	0.00	29.584 
05:25	39.6	39.6	39.6	69	30.3	2	6	270	0.00	29.584 
05:30	39.6	39.6	39.6	70	30.6	1	4	270	0.00	29.582 
05:35	39.5	39.5	39.5	69	30.2	2	7	270	0.00	29.582 
05:40	39.5	39.5	39.5	69	30.2	2	5	248	0.00	29.582 
05:45	39.5	39.5	39.5	68	29.8	2	7	248	0.00	29.582 
05:50	39.3	39.3	39.3	69	30.0	1	6	248	0.00	29.582 
05:55	39.2	39.2	39.2	68	29.5	3	9	248	0.00	29.582 
06:00	39.2	39.2	39.2	68	29.5	1	5	248	0.00	29.585 
06:05	39.2	39.2	39.2	68	29.5	1	6	248	0.00	29.585 
06:10	39.1	39.1	39.1	67	29.1	1	4	248	0.00	29.585 
06:15	38.9	38.9	38.9	68	29.3	1	4	248	0.00	29.587 
06:20	38.9	38.9	38.9	68	29.3	1	5	248	0.00	29.587 
06:25	38.8	38.8	38.8	67	28.8	1	4	248	0.00	29.587 
06:30	38.8	38.8	38.8	67	28.8	1	4	248	0.00	29.587 
06:35	38.6	38.6	38.6	67	28.6	1	4	248	0.00	29.587 
06:40	38.6	38.6	38.6	66	28.2	1	4	248	0.00	29.587 
06:45	38.6	38.6	38.6	66	28.2	1	4	248	0.00	29.588 
06:50	38.6	38.6	38.6	66	28.2	1	4	248	0.00	29.588 
06:55	38.6	38.6	38.6	66	28.2	1	5	248	0.00	29.588 
07:00	38.6	38.6	38.6	66	28.2	2	5	248	0.00	29.588 
07:05	38.5	38.5	38.5	66	28.1	1	4	248	0.00	29.588 
07:10	38.5	38.5	38.5	66	28.1	1	3	248	0.00	29.588 
07:15	38.5	38.5	38.5	66	28.1	1	4	248	0.00	29.588 
07:20	38.3	38.3	38.3	66	28.0	1	6	248	0.00	29.588 
07:25	38.3	38.3	38.3	67	28.3	0	3	248	0.00	29.588 
07:30	38.2	38.2	38.2	67	28.2	1	4	248	0.00	29.588 
07:35	38.2	38.2	38.2	68	28.6	1	3	248	0.00	29.588 
07:40	38.2	38.2	38.2	68	28.6	1	4	248	0.00	29.588 
07:45	38.0	38.0	38.0	69	28.7	1	7	248	0.00	29.590 
07:50	38.0	38.0	38.0	69	28.7	1	5	248	0.00	29.590 
07:55	37.9	37.9	37.9	69	28.7	1	5	248	0.00	29.590 
08:00	37.9	37.9	37.9	69	28.7	2	5	248	0.00	29.590 
08:05	37.9	37.9	37.9	69	28.7	1	5	270	0.00	29.590 
08:10	37.9	37.9	37.9	69	28.7	1	6	270	0.00	29.590 
08:15	37.9	37.9	37.9	69	28.7	1	4	270	0.00	29.597 
08:20	37.9	37.9	37.9	69	28.7	2	7	248	0.00	29.597 
08:25	37.9	37.9	37.9	69	28.7	1	4	248	0.00	29.597 
08:30	37.8	37.8	37.8	70	28.9	1	4	248	0.00	29.602 
08:35	37.8	37.8	37.8	70	28.9	1	5	248	0.00	29.602 
08:40	37.8	37.8	37.8	69	28.6	2	6	248	0.00	29.602 
08:45	37.9	37.9	37.9	69	28.7	1	5	248	0.00	29.607 
08:50	37.9	37.9	37.9	69	28.7	2	7	248	0.00	29.607 
08:55	38.0	38.0	38.0	69	28.7	1	7	248	0.00	29.607 
09:00	38.0	38.0	38.0	69	28.7	2	7	248	0.00	29.616 
09:05	38.2	38.2	38.2	69	28.9	2	6	270	0.00	29.616 
09:10	38.3	38.3	38.3	68	28.7	2	7	248	0.00	29.616 
09:15	38.5	38.5	38.5	68	28.9	1	7	248	0.00	29.612 
09:20	38.6	38.6	38.6	68	29.0	1	5	270	0.00	29.612 
09:25	38.8	38.8	38.8	67	28.8	1	4	248	0.00	29.612 
09:30	38.9	38.9	38.9	67	28.9	2	10	248	0.00	29.623 
09:35	39.1	39.1	39.1	66	28.7	2	6	248	0.00	29.623 
09:40	39.2	39.2	39.2	66	28.8	2	7	248	0.00	29.623 
09:45	39.3	39.3	39.3	66	28.9	2	5	248	0.00	29.624 
09:50	39.5	39.5	39.5	65	28.7	3	6	248	0.01	29.624 
09:55	39.8	39.8	39.8	65	29.0	2	7	248	0.00	29.624 
10:00	39.9	39.9	39.9	64	28.7	3	7	248	0.00	29.630 
10:05	40.1	40.1	40.1	64	28.9	3	9	270	0.00	29.630 
10:10	40.2	40.2	40.2	64	29.0	3	7	270	0.00	29.630 
10:15	40.3	40.3	40.3	64	29.1	3	10	248	0.00	29.628 
10:20	40.3	37.7	40.3	63	28.7	4	7	270	0.00	29.628 
10:25	40.5	37.9	40.5	63	28.9	4	12	248	0.00	29.628 
10:30	40.6	40.6	40.6	63	29.0	3	7	248	0.00	29.635 
10:35	40.6	38.0	40.6	63	29.0	4	10	248	0.00	29.635 
10:40	40.8	38.2	40.8	64	29.6	4	9	248	0.00	29.635 
10:45	40.9	38.4	40.9	63	29.3	4	12	248	0.00	29.639 
10:50	41.2	38.7	41.2	63	29.6	4	10	270	0.00	29.639 
10:55	41.3	38.8	41.3	63	29.7	4	10	270	0.00	29.639 
11:00	41.5	41.5	41.5	62	29.5	3	6	270	0.00	29.646 
11:05	41.2	38.7	41.2	62	29.2	4	7	270	0.00	29.646 
11:10	41.3	38.8	41.3	62	29.3	4	9	270	0.00	29.646 
11:15	41.8	39.4	41.8	61	29.4	4	11	270	0.00	29.654 
11:20	42.1	39.7	42.1	61	29.6	4	8	292	0.00	29.654 
11:25	41.9	38.7	41.9	60	29.0	5	10	270	0.00	29.654 
11:30	41.8	38.6	41.8	61	29.4	5	12	270	0.00	29.657 
11:35	42.2	42.2	42.2	62	30.1	3	10	270	0.00	29.657 
11:40	42.8	42.8	42.8	61	30.3	3	9	270	0.00	29.657 
11:45	43.2	43.2	43.2	61	30.7	3	6	270	0.00	29.660 
11:50	43.3	41.1	43.3	60	30.4	4	11	248	0.00	29.660 
11:55	42.5	38.7	42.5	59	29.2	6	14	270	0.00	29.660 
12:00	41.8	38.6	41.8	60	28.9	5	13	270	0.00	29.675 
12:05	41.9	39.5	41.9	61	29.4	4	8	270	0.00	29.675 
12:10	41.9	39.5	41.9	62	29.8	4	9	270	0.00	29.675 
12:15	42.1	42.1	42.1	62	30.0	2	9	270	0.00	29.690 
12:20	42.1	39.7	42.1	62	30.0	4	11	270	0.00	29.690 
12:25	41.9	41.9	41.9	63	30.2	3	7	270	0.00	29.690 
12:30	41.8	39.4	41.8	63	30.1	4	8	270	0.00	29.693 
12:35	41.8	41.8	41.8	64	30.5	3	7	248	0.00	29.693 
12:40	41.6	39.2	41.6	64	30.3	4	10	270	0.00	29.693 
12:45	41.5	38.2	41.5	64	30.2	5	11	270	0.00	29.701 
12:50	41.6	39.2	41.6	64	30.3	4	7	270	0.00	29.701 
12:55	41.5	39.1	41.5	63	29.9	4	9	270	0.00	29.701 
13:00	41.3	41.3	41.3	65	30.4	3	7	270	0.00	29.707 
13:05	41.3	41.3	41.3	65	30.4	3	7	248	0.00	29.707 
13:10	41.3	41.3	41.3	65	30.4	2	7	270	0.00	29.707 
13:15	41.3	41.3	41.3	66	30.8	2	7	292	0.00	29.722 
13:20	41.2	41.2	41.2	66	30.7	3	6	270	0.00	29.722 
13:25	41.2	41.2	41.2	67	31.1	3	6	270	0.00	29.722 
13:30	41.1	41.1	41.1	67	31.0	3	9	270	0.00	29.723 
13:35	41.1	41.1	41.1	67	31.0	2	6	270	0.00	29.723 
13:40	40.9	38.4	40.9	66	30.4	4	9	270	0.00	29.723 
13:45	40.9	38.4	40.9	67	30.8	4	12	270	0.00	29.730 
13:50	40.9	40.9	40.9	67	30.8	2	6	225	0.00	29.730 
13:55	40.9	40.9	40.9	67	30.8	3	10	270	0.00	29.730 
14:00	41.1	41.1	41.1	67	31.0	3	10	248	0.00	29.736 
14:05	41.1	41.1	41.1	68	31.4	3	9	270	0.00	29.736 
14:10	41.2	41.2	41.2	68	31.5	3	9	270	0.00	29.736 
14:15	41.6	41.6	41.6	69	32.2	2	6	270	0.00	29.739 
14:20	42.1	42.1	42.1	68	32.3	2	5	248	0.00	29.739 
14:25	42.2	42.2	42.2	66	31.7	3	10	270	0.00	29.739 
14:30	42.1	42.1	42.1	67	31.9	3	10	270	0.00	29.737 
14:35	41.9	39.5	41.9	67	31.8	4	11	270	0.00	29.737 
14:40	41.9	41.9	41.9	67	31.8	3	6	248	0.00	29.737 
14:45	41.9	41.9	41.9	67	31.8	2	6	270	0.00	29.741 
14:50	41.8	41.8	41.8	67	31.7	3	8	248	0.00	29.741 
14:55	41.6	41.6	41.6	68	31.8	2	6	292	0.00	29.741 
15:00	41.5	41.5	41.5	69	32.1	3	7	248	0.00	29.744 
15:05	41.5	41.5	41.5	69	32.1	2	6	248	0.00	29.744 
15:10	41.3	41.3	41.3	70	32.3	3	8	248	0.00	29.744 
15:15	41.5	41.5	41.5	70	32.5	2	7	270	0.00	29.752 
15:20	41.5	41.5	41.5	70	32.5	3	7	270	0.00	29.752 
15:25	41.5	39.1	41.5	70	32.5	4	9	270	0.00	29.752 
15:30	41.5	41.5	41.5	70	32.5	2	6	292	0.00	29.756 
15:35	41.6	41.6	41.6	70	32.6	2	7	270	0.00	29.756 
15:40	41.6	41.6	41.6	71	32.9	1	5	270	0.00	29.756 
15:45	41.8	41.8	41.8	71	33.1	1	5	248	0.00	29.758 
15:50	41.8	41.8	41.8	71	33.1	2	9	248	0.00	29.758 
15:55	41.8	41.8	41.8	71	33.1	3	10	270	0.00	29.758 
16:00	41.9	41.9	41.9	71	33.2	3	6	270	0.00	29.769 
16:05	41.9	41.9	41.9	71	33.2	2	5	248	0.00	29.769 
16:10	42.1	42.1	42.1	71	33.4	1	5	248	0.00	29.769 
16:15	42.2	42.2	42.2	71	33.5	3	9	270	0.00	29.773 
16:20	42.2	42.2	42.2	71	33.5	2	6	292	0.00	29.773 
16:25	42.2	42.2	42.2	71	33.5	3	9	270	0.00	29.773 
16:30	42.3	42.3	42.3	72	33.9	1	5	248	0.00	29.784 
16:35	42.3	42.3	42.3	71	33.6	2	6	248	0.00	29.784 
16:40	42.3	42.3	42.3	72	33.9	2	5	270	0.00	29.784 
16:45	42.3	42.3	42.3	72	33.9	2	5	248	0.00	29.787 
16:50	42.3	42.3	42.3	72	33.9	1	5	270	0.00	29.787 
16:55	42.3	42.3	42.3	72	33.9	2	7	248	0.00	29.787 
17:00	42.3	42.3	42.3	72	33.9	2	9	248	0.00	29.797 
17:05	42.3	42.3	42.3	73	34.3	2	5	270	0.00	29.797 
17:10	42.3	42.3	42.3	73	34.3	2	7	270	0.00	29.797 
17:15	42.5	42.5	42.5	73	34.5	1	5	270	0.00	29.803 
17:20	42.5	42.5	42.5	73	34.5	1	5	225	0.00	29.803 
17:25	42.5	42.5	42.5	73	34.5	0	2	225	0.00	29.803 
17:30	42.5	42.5	42.5	73	34.5	2	5	270	0.00	29.812 
17:35	42.6	42.6	42.6	73	34.6	1	5	270	0.00	29.812 
17:40	42.6	42.6	42.6	74	34.9	1	4	292	0.00	29.812 
17:45	42.6	42.6	42.6	74	34.9	1	4	292	0.00	29.816 
17:50	42.6	42.6	42.6	74	34.9	1	5	270	0.00	29.816 
17:55	42.6	42.6	42.6	74	34.9	1	3	270	0.00	29.816 
18:00	42.6	42.6	42.6	74	34.9	0	3	270	0.00	29.816 
18:05	42.6	42.6	42.6	75	35.2	1	3	270	0.00	29.816 
18:10	42.6	42.6	42.6	75	35.2	1	4	270	0.00	29.816 
18:15	42.6	42.6	42.6	75	35.2	1	6	270	0.00	29.820 
18:20	42.6	42.6	42.6	75	35.2	0	2	270	0.00	29.820 
18:25	42.6	42.6	42.6	75	35.2	0	1	270	0.00	29.820 
18:30	42.6	42.6	42.6	76	35.6	0	1	270	0.00	29.831 
18:35	42.6	42.6	42.6	76	35.6	1	4	270	0.00	29.831 
18:40	42.6	42.6	42.6	76	35.6	0	1	270	0.00	29.831 
18:45	42.6	42.6	42.6	76	35.6	0	3	270	0.00	29.835 
18:50	42.6	42.6	42.6	77	35.9	0	2	270	0.00	29.835 
18:55	42.5	42.5	42.5	77	35.8	0	3	270	0.00	29.835 
19:00	42.5	42.5	42.5	77	35.8	0	2	270	0.00	29.845 
19:05	42.5	42.5	42.5	77	35.8	1	4	270	0.00	29.845 
19:10	42.5	42.5	42.5	78	36.1	0	2	270	0.00	29.845 
19:15	42.5	42.5	42.5	78	36.1	0	3	270	0.00	29.852 
19:20	42.3	42.3	42.3	78	35.9	1	5	270	0.00	29.852 
19:25	42.3	42.3	42.3	79	36.3	0	3	248	0.00	29.852 
19:30	42.3	42.3	42.3	79	36.3	0	1	248	0.00	29.852 
19:35	42.3	42.3	42.3	79	36.3	0	3	248	0.00	29.852 
19:40	42.3	42.3	42.3	79	36.3	1	5	248	0.00	29.852 
19:45	42.3	42.3	42.3	79	36.3	0	2	248	0.00	29.864 
19:50	42.5	42.5	42.5	79	36.5	0	2	248	0.00	29.864 
19:55	42.5	42.5	42.5	79	36.5	1	3	248	0.00	29.864 
20:00	42.5	42.5	42.5	79	36.5	1	4	248	0.00	29.871 
20:05	42.5	42.5	42.5	79	36.5	1	4	248	0.00	29.871 
20:10	42.5	42.5	42.5	80	36.8	1	3	248	0.00	29.871 
20:15	42.3	42.3	42.3	80	36.6	0	4	248	0.00	29.878 
20:20	42.3	42.3	42.3	81	36.9	1	4	248	0.00	29.878 
20:25	42.2	42.2	42.2	81	36.8	1	4	248	0.00	29.878 
20:30	42.2	42.2	42.2	82	37.1	1	4	248	0.00	29.881 
20:35	42.2	42.2	42.2	82	37.1	0	2	248	0.00	29.881 
20:40	42.2	42.2	42.2	82	37.1	0	2	248	0.00	29.881 
20:45	42.2	42.2	42.2	82	37.1	0	2	248	0.00	29.882 
20:50	42.2	42.2	42.2	82	37.1	0	3	248	0.00	29.882 
20:55	42.2	42.2	42.2	82	37.1	1	4	248	0.00	29.882 
21:00	42.3	42.3	42.3	82	37.2	0	2	248	0.00	29.883 
21:05	42.3	42.3	42.3	82	37.2	1	4	248	0.00	29.883 
21:10	42.3	42.3	42.3	82	37.2	0	3	248	0.00	29.883 
21:15	42.3	42.3	42.3	82	37.2	0	2	248	0.00	29.886 
21:20	42.3	42.3	42.3	82	37.2	0	3	248	0.00	29.886 
21:25	42.3	42.3	42.3	82	37.2	0	2	248	0.00	29.886 
21:30	42.5	42.5	42.5	82	37.4	1	5	248	0.00	29.891 
21:35	42.5	42.5	42.5	82	37.4	0	3	248	0.00	29.891 
21:40	42.5	42.5	42.5	83	37.7	1	4	248	0.00	29.891 
21:45	42.5	42.5	42.5	82	37.4	0	4	248	0.00	29.894 
21:50	42.6	42.6	42.6	83	37.8	1	4	248	0.00	29.894 
21:55	42.6	42.6	42.6	83	37.8	0	2	248	0.00	29.894 
22:00	42.6	42.6	42.6	83	37.8	0	3	248	0.00	29.896 
22:05	42.6	42.6	42.6	83	37.8	0	3	248	0.00	29.896 
22:10	42.6	42.6	42.6	83	37.8	0	2	248	0.00	29.896 
22:15	42.6	42.6	42.6	83	37.8	0	2	248	0.00	29.899 
22:20	42.6	42.6	42.6	83	37.8	0	3	248	0.00	29.899 
22:25	42.6	42.6	42.6	83	37.8	0	2	248	0.00	29.899 
22:30	42.6	42.6	42.6	84	38.1	0	2	248	0.00	29.904 
22:35	42.6	42.6	42.6	84	38.1	0	2	248	0.00	29.904 
22:40	42.6	42.6	42.6	84	38.1	0	3	248	0.00	29.904 
22:45	42.6	42.6	42.6	84	38.1	0	3	248	0.00	29.908 
22:50	42.6	42.6	42.6	84	38.1	0	3	248	0.00	29.908 
22:55	42.6	42.6	42.6	84	38.1	0	1	248	0.00	29.908 
23:00	42.6	42.6	42.6	84	38.1	0	1	248	0.00	29.912 
23:05	42.6	42.6	42.6	84	38.1	0	1	248	0.00	29.912 
23:10	42.6	42.6	42.6	84	38.1	0	1	248	0.00	29.912 
23:15	42.6	42.6	42.6	85	38.4	0	4	248	0.00	29.922 
23:20	42.5	42.5	42.5	85	38.3	0	2	248	0.00	29.922 
23:25	42.5	42.5	42.5	85	38.3	0	3	248	0.00	29.922 
23:30	42.5	42.5	42.5	85	38.3	0	1	248	0.00	29.926 
23:35	42.5	42.5	42.5	85	38.3	0	2	248	0.00	29.926 
23:40	42.5	42.5	42.5	86	38.6	0	2	248	0.00	29.926 
23:45	42.5	42.5	42.5	86	38.6	0	3	248	0.00	29.926 
23:50	42.5	42.5	42.5	86	38.6	0	1	248	0.00	29.926 
23:55	42.5	42.5	42.5	86	38.6	0	2	248	0.00	29.926 

CoCoRaHS
IN-AL-39
A2 Web Hosting
Creative Commons License
GoDaddy
search engine by freefind advanced

loaded 2018-11-15 16:43:31 • last modified 2010-11-18 10:43:29
Privacy PolicyDisclaimer
• wx.awcolley.com is powered by PmWiki v.2002016 •
• all content (unless otherwise noted) © 2018 A W Colley